sensor_id;sensor_type;location;lat;lon;timestamp;P1;durP1;ratioP1;P2;durP2;ratioP2
80910;SDS011;70359;51.420;7.032;2024-03-02T00:01:24;3.6;;;0.6;;
80910;SDS011;70359;51.420;7.032;2024-03-02T00:03:49;3.6;;;0.6;;
80910;SDS011;70359;51.420;7.032;2024-03-02T00:06:14;3.3;;;0.9;;
80910;SDS011;70359;51.420;7.032;2024-03-02T00:08:39;3.3;;;0.9;;
80910;SDS011;70359;51.420;7.032;2024-03-02T00:11:04;0.9;;;0.8;;
80910;SDS011;70359;51.420;7.032;2024-03-02T00:13:29;0.9;;;0.8;;
80910;SDS011;70359;51.420;7.032;2024-03-02T00:15:56;1.4;;;0.9;;
80910;SDS011;70359;51.420;7.032;2024-03-02T00:18:21;1.4;;;0.9;;
80910;SDS011;70359;51.420;7.032;2024-03-02T00:20:44;1.2;;;1.1;;
80910;SDS011;70359;51.420;7.032;2024-03-02T00:23:10;1.2;;;1.1;;
80910;SDS011;70359;51.420;7.032;2024-03-02T00:25:41;1.1;;;0.8;;
80910;SDS011;70359;51.420;7.032;2024-03-02T00:27:59;1.1;;;0.8;;
80910;SDS011;70359;51.420;7.032;2024-03-02T00:30:41;1.2;;;0.9;;
80910;SDS011;70359;51.420;7.032;2024-03-02T00:32:49;1.2;;;0.9;;
80910;SDS011;70359;51.420;7.032;2024-03-02T00:35:14;0.8;;;0.7;;
80910;SDS011;70359;51.420;7.032;2024-03-02T00:37:39;0.8;;;0.7;;
80910;SDS011;70359;51.420;7.032;2024-03-02T00:40:05;1.4;;;1;;
80910;SDS011;70359;51.420;7.032;2024-03-02T00:42:31;1.4;;;1;;
80910;SDS011;70359;51.420;7.032;2024-03-02T00:44:54;1;;;0.9;;
80910;SDS011;70359;51.420;7.032;2024-03-02T00:47:19;1;;;0.9;;
80910;SDS011;70359;51.420;7.032;2024-03-02T00:49:46;1;;;0.8;;
80910;SDS011;70359;51.420;7.032;2024-03-02T00:52:13;1;;;0.8;;
80910;SDS011;70359;51.420;7.032;2024-03-02T00:54:34;0.7;;;0.7;;
80910;SDS011;70359;51.420;7.032;2024-03-02T00:56:59;0.7;;;0.7;;
80910;SDS011;70359;51.420;7.032;2024-03-02T00:59:24;0.7;;;0.7;;
80910;SDS011;70359;51.420;7.032;2024-03-02T01:01:49;0.7;;;0.7;;
80910;SDS011;70359;51.420;7.032;2024-03-02T01:04:18;0.7;;;0.7;;
80910;SDS011;70359;51.420;7.032;2024-03-02T01:06:39;1.2;;;0.8;;
80910;SDS011;70359;51.420;7.032;2024-03-02T01:09:04;1.2;;;0.8;;
80910;SDS011;70359;51.420;7.032;2024-03-02T01:11:29;0.6;;;0.5;;
80910;SDS011;70359;51.420;7.032;2024-03-02T01:13:54;0.6;;;0.5;;
80910;SDS011;70359;51.420;7.032;2024-03-02T01:16:19;0.7;;;0.7;;
80910;SDS011;70359;51.420;7.032;2024-03-02T01:18:44;0.7;;;0.7;;
80910;SDS011;70359;51.420;7.032;2024-03-02T01:21:09;0.8;;;0.6;;
80910;SDS011;70359;51.420;7.032;2024-03-02T01:23:38;0.8;;;0.6;;
80910;SDS011;70359;51.420;7.032;2024-03-02T01:26:03;1;;;0.8;;
80910;SDS011;70359;51.420;7.032;2024-03-02T01:28:28;1;;;0.8;;
80910;SDS011;70359;51.420;7.032;2024-03-02T01:30:49;0.9;;;0.8;;
80910;SDS011;70359;51.420;7.032;2024-03-02T01:33:14;0.9;;;0.8;;
80910;SDS011;70359;51.420;7.032;2024-03-02T01:35:39;0.8;;;0.6;;
80910;SDS011;70359;51.420;7.032;2024-03-02T01:38:04;0.8;;;0.6;;
80910;SDS011;70359;51.420;7.032;2024-03-02T01:40:33;0.9;;;0.8;;
80910;SDS011;70359;51.420;7.032;2024-03-02T01:42:54;0.9;;;0.8;;
80910;SDS011;70359;51.420;7.032;2024-03-02T01:45:19;0.6;;;0.6;;
80910;SDS011;70359;51.420;7.032;2024-03-02T01:47:44;0.6;;;0.6;;
80910;SDS011;70359;51.420;7.032;2024-03-02T01:50:11;1;;;0.8;;
80910;SDS011;70359;51.420;7.032;2024-03-02T01:52:34;1;;;0.8;;
80910;SDS011;70359;51.420;7.032;2024-03-02T01:54:59;0.6;;;0.6;;
80910;SDS011;70359;51.420;7.032;2024-03-02T01:57:24;0.6;;;0.6;;
80910;SDS011;70359;51.420;7.032;2024-03-02T01:59:53;1;;;0.8;;
80910;SDS011;70359;51.420;7.032;2024-03-02T02:02:18;1;;;0.8;;
80910;SDS011;70359;51.420;7.032;2024-03-02T02:04:43;0.6;;;0.6;;
80910;SDS011;70359;51.420;7.032;2024-03-02T02:07:04;0.6;;;0.6;;
80910;SDS011;70359;51.420;7.032;2024-03-02T02:09:29;0.6;;;0.6;;
80910;SDS011;70359;51.420;7.032;2024-03-02T02:11:54;0.7;;;0.6;;
80910;SDS011;70359;51.420;7.032;2024-03-02T02:14:19;0.7;;;0.6;;
80910;SDS011;70359;51.420;7.032;2024-03-02T02:16:44;0.6;;;0.5;;
80910;SDS011;70359;51.420;7.032;2024-03-02T02:19:09;0.6;;;0.5;;
80910;SDS011;70359;51.420;7.032;2024-03-02T02:21:34;0.7;;;0.7;;
80910;SDS011;70359;51.420;7.032;2024-03-02T02:23:59;0.7;;;0.7;;
80910;SDS011;70359;51.420;7.032;2024-03-02T02:26:28;1;;;0.7;;
80910;SDS011;70359;51.420;7.032;2024-03-02T02:28:49;1;;;0.7;;
80910;SDS011;70359;51.420;7.032;2024-03-02T02:31:14;0.7;;;0.6;;
80910;SDS011;70359;51.420;7.032;2024-03-02T02:33:42;0.7;;;0.6;;
80910;SDS011;70359;51.420;7.032;2024-03-02T02:36:04;0.5;;;0.5;;
80910;SDS011;70359;51.420;7.032;2024-03-02T02:38:35;0.5;;;0.5;;
80910;SDS011;70359;51.420;7.032;2024-03-02T02:40:54;1;;;0.6;;
80910;SDS011;70359;51.420;7.032;2024-03-02T02:43:19;1;;;0.6;;
80910;SDS011;70359;51.420;7.032;2024-03-02T02:45:44;1.1;;;0.7;;
80910;SDS011;70359;51.420;7.032;2024-03-02T02:48:13;1.1;;;0.7;;
80910;SDS011;70359;51.420;7.032;2024-03-02T02:50:34;0.7;;;0.6;;
80910;SDS011;70359;51.420;7.032;2024-03-02T02:52:59;0.7;;;0.6;;
80910;SDS011;70359;51.420;7.032;2024-03-02T02:55:24;0.6;;;0.6;;
80910;SDS011;70359;51.420;7.032;2024-03-02T02:57:53;0.6;;;0.6;;
80910;SDS011;70359;51.420;7.032;2024-03-02T03:00:15;0.8;;;0.7;;
80910;SDS011;70359;51.420;7.032;2024-03-02T03:02:40;0.8;;;0.7;;
80910;SDS011;70359;51.420;7.032;2024-03-02T03:05:05;1;;;0.7;;
80910;SDS011;70359;51.420;7.032;2024-03-02T03:07:33;1;;;0.7;;
80910;SDS011;70359;51.420;7.032;2024-03-02T03:09:54;0.7;;;0.7;;
80910;SDS011;70359;51.420;7.032;2024-03-02T03:12:19;0.7;;;0.7;;
80910;SDS011;70359;51.420;7.032;2024-03-02T03:14:48;1;;;0.9;;
80910;SDS011;70359;51.420;7.032;2024-03-02T03:17:13;1;;;0.9;;
80910;SDS011;70359;51.420;7.032;2024-03-02T03:19:51;0.6;;;0.6;;
80910;SDS011;70359;51.420;7.032;2024-03-02T03:21:59;0.6;;;0.6;;
80910;SDS011;70359;51.420;7.032;2024-03-02T03:24:24;0.6;;;0.6;;
80910;SDS011;70359;51.420;7.032;2024-03-02T03:26:49;0.7;;;0.6;;
80910;SDS011;70359;51.420;7.032;2024-03-02T03:29:14;0.7;;;0.6;;
80910;SDS011;70359;51.420;7.032;2024-03-02T03:31:39;0.5;;;0.5;;
80910;SDS011;70359;51.420;7.032;2024-03-02T03:34:04;0.5;;;0.5;;
80910;SDS011;70359;51.420;7.032;2024-03-02T03:36:29;0.8;;;0.6;;
80910;SDS011;70359;51.420;7.032;2024-03-02T03:38:54;0.8;;;0.6;;
80910;SDS011;70359;51.420;7.032;2024-03-02T03:41:19;1;;;0.8;;
80910;SDS011;70359;51.420;7.032;2024-03-02T03:43:44;1;;;0.8;;
80910;SDS011;70359;51.420;7.032;2024-03-02T03:46:09;0.8;;;0.7;;
80910;SDS011;70359;51.420;7.032;2024-03-02T03:48:35;0.8;;;0.7;;
80910;SDS011;70359;51.420;7.032;2024-03-02T03:50:59;0.8;;;0.6;;
80910;SDS011;70359;51.420;7.032;2024-03-02T03:53:24;0.8;;;0.6;;
80910;SDS011;70359;51.420;7.032;2024-03-02T03:55:49;1;;;0.8;;
80910;SDS011;70359;51.420;7.032;2024-03-02T03:58:14;1;;;0.8;;
80910;SDS011;70359;51.420;7.032;2024-03-02T04:00:39;0.8;;;0.7;;
80910;SDS011;70359;51.420;7.032;2024-03-02T04:03:04;0.8;;;0.7;;
80910;SDS011;70359;51.420;7.032;2024-03-02T04:05:29;1.4;;;0.9;;
80910;SDS011;70359;51.420;7.032;2024-03-02T04:07:54;1.4;;;0.9;;
80910;SDS011;70359;51.420;7.032;2024-03-02T04:10:20;0.7;;;0.6;;
80910;SDS011;70359;51.420;7.032;2024-03-02T04:12:48;0.7;;;0.6;;
80910;SDS011;70359;51.420;7.032;2024-03-02T04:15:10;1.3;;;0.7;;
80910;SDS011;70359;51.420;7.032;2024-03-02T04:17:35;1.3;;;0.7;;
80910;SDS011;70359;51.420;7.032;2024-03-02T04:19:59;1.1;;;0.8;;
80910;SDS011;70359;51.420;7.032;2024-03-02T04:22:24;1.1;;;0.8;;
80910;SDS011;70359;51.420;7.032;2024-03-02T04:24:49;1;;;0.7;;
80910;SDS011;70359;51.420;7.032;2024-03-02T04:27:14;1;;;0.7;;
80910;SDS011;70359;51.420;7.032;2024-03-02T04:29:43;1.2;;;0.7;;
80910;SDS011;70359;51.420;7.032;2024-03-02T04:32:09;1.2;;;0.7;;
80910;SDS011;70359;51.420;7.032;2024-03-02T04:34:29;1.2;;;0.7;;
80910;SDS011;70359;51.420;7.032;2024-03-02T04:36:55;0.6;;;0.6;;
80910;SDS011;70359;51.420;7.032;2024-03-02T04:39:20;0.6;;;0.6;;
80910;SDS011;70359;51.420;7.032;2024-03-02T04:41:45;0.8;;;0.8;;
80910;SDS011;70359;51.420;7.032;2024-03-02T04:44:10;0.8;;;0.8;;
80910;SDS011;70359;51.420;7.032;2024-03-02T04:46:35;0.5;;;0.5;;
80910;SDS011;70359;51.420;7.032;2024-03-02T04:49:00;0.5;;;0.5;;
80910;SDS011;70359;51.420;7.032;2024-03-02T04:51:25;0.6;;;0.6;;
80910;SDS011;70359;51.420;7.032;2024-03-02T04:53:50;0.6;;;0.6;;
80910;SDS011;70359;51.420;7.032;2024-03-02T04:56:15;0.7;;;0.6;;
80910;SDS011;70359;51.420;7.032;2024-03-02T04:58:40;0.7;;;0.6;;
80910;SDS011;70359;51.420;7.032;2024-03-02T05:01:05;0.9;;;0.7;;
80910;SDS011;70359;51.420;7.032;2024-03-02T05:03:30;0.9;;;0.7;;
80910;SDS011;70359;51.420;7.032;2024-03-02T05:05:55;0.7;;;0.6;;
80910;SDS011;70359;51.420;7.032;2024-03-02T05:08:20;0.7;;;0.6;;
80910;SDS011;70359;51.420;7.032;2024-03-02T05:10:45;1;;;0.7;;
80910;SDS011;70359;51.420;7.032;2024-03-02T05:13:10;1;;;0.7;;
80910;SDS011;70359;51.420;7.032;2024-03-02T05:15:35;0.7;;;0.7;;
80910;SDS011;70359;51.420;7.032;2024-03-02T05:18:00;0.7;;;0.7;;
80910;SDS011;70359;51.420;7.032;2024-03-02T05:20:25;0.8;;;0.7;;
80910;SDS011;70359;51.420;7.032;2024-03-02T05:22:50;0.8;;;0.7;;
80910;SDS011;70359;51.420;7.032;2024-03-02T05:25:15;1;;;0.8;;
80910;SDS011;70359;51.420;7.032;2024-03-02T05:27:40;1;;;0.8;;
80910;SDS011;70359;51.420;7.032;2024-03-02T05:30:05;0.8;;;0.7;;
80910;SDS011;70359;51.420;7.032;2024-03-02T05:32:30;0.8;;;0.7;;
80910;SDS011;70359;51.420;7.032;2024-03-02T05:34:55;0.9;;;0.8;;
80910;SDS011;70359;51.420;7.032;2024-03-02T05:37:20;0.9;;;0.8;;
80910;SDS011;70359;51.420;7.032;2024-03-02T05:39:45;1.6;;;1;;
80910;SDS011;70359;51.420;7.032;2024-03-02T05:42:10;1.6;;;1;;
80910;SDS011;70359;51.420;7.032;2024-03-02T05:44:39;1.6;;;1;;
80910;SDS011;70359;51.420;7.032;2024-03-02T05:47:00;0.7;;;0.7;;
80910;SDS011;70359;51.420;7.032;2024-03-02T05:49:29;0.7;;;0.7;;
80910;SDS011;70359;51.420;7.032;2024-03-02T05:51:54;0.6;;;0.6;;
80910;SDS011;70359;51.420;7.032;2024-03-02T05:54:15;0.6;;;0.6;;
80910;SDS011;70359;51.420;7.032;2024-03-02T05:56:40;0.7;;;0.7;;
80910;SDS011;70359;51.420;7.032;2024-03-02T05:59:05;0.7;;;0.7;;
80910;SDS011;70359;51.420;7.032;2024-03-02T06:01:34;1.1;;;0.8;;
80910;SDS011;70359;51.420;7.032;2024-03-02T06:03:55;1.1;;;0.8;;
80910;SDS011;70359;51.420;7.032;2024-03-02T06:06:20;0.8;;;0.7;;
80910;SDS011;70359;51.420;7.032;2024-03-02T06:08:45;0.8;;;0.7;;
80910;SDS011;70359;51.420;7.032;2024-03-02T06:11:10;1.1;;;1;;
80910;SDS011;70359;51.420;7.032;2024-03-02T06:13:35;1.1;;;1;;
80910;SDS011;70359;51.420;7.032;2024-03-02T06:16:00;1;;;0.9;;
80910;SDS011;70359;51.420;7.032;2024-03-02T06:18:25;1;;;0.9;;
80910;SDS011;70359;51.420;7.032;2024-03-02T06:20:50;1.5;;;1;;
80910;SDS011;70359;51.420;7.032;2024-03-02T06:23:15;1.5;;;1;;
80910;SDS011;70359;51.420;7.032;2024-03-02T06:25:40;0.6;;;0.6;;
80910;SDS011;70359;51.420;7.032;2024-03-02T06:28:09;0.6;;;0.6;;
80910;SDS011;70359;51.420;7.032;2024-03-02T06:30:30;1;;;0.8;;
80910;SDS011;70359;51.420;7.032;2024-03-02T06:32:55;1;;;0.8;;
80910;SDS011;70359;51.420;7.032;2024-03-02T06:35:20;2.5;;;0.7;;
80910;SDS011;70359;51.420;7.032;2024-03-02T06:37:45;2.5;;;0.7;;
80910;SDS011;70359;51.420;7.032;2024-03-02T06:40:10;0.7;;;0.7;;
80910;SDS011;70359;51.420;7.032;2024-03-02T06:42:35;0.7;;;0.7;;
80910;SDS011;70359;51.420;7.032;2024-03-02T06:45:04;1;;;0.8;;
80910;SDS011;70359;51.420;7.032;2024-03-02T06:47:25;1;;;0.8;;
80910;SDS011;70359;51.420;7.032;2024-03-02T06:49:50;0.8;;;0.8;;
80910;SDS011;70359;51.420;7.032;2024-03-02T06:52:15;0.8;;;0.8;;
80910;SDS011;70359;51.420;7.032;2024-03-02T06:54:44;0.8;;;0.8;;
80910;SDS011;70359;51.420;7.032;2024-03-02T06:57:09;1.7;;;0.9;;
80910;SDS011;70359;51.420;7.032;2024-03-02T06:59:30;1.7;;;0.9;;
80910;SDS011;70359;51.420;7.032;2024-03-02T07:01:55;1;;;0.9;;
80910;SDS011;70359;51.420;7.032;2024-03-02T07:04:20;1;;;0.9;;
80910;SDS011;70359;51.420;7.032;2024-03-02T07:06:45;1.2;;;1.1;;
80910;SDS011;70359;51.420;7.032;2024-03-02T07:09:14;1.2;;;1.1;;
80910;SDS011;70359;51.420;7.032;2024-03-02T07:11:35;2.9;;;1.5;;
80910;SDS011;70359;51.420;7.032;2024-03-02T07:14:00;2.9;;;1.5;;
80910;SDS011;70359;51.420;7.032;2024-03-02T07:16:25;0.9;;;0.9;;
80910;SDS011;70359;51.420;7.032;2024-03-02T07:18:50;0.9;;;0.9;;
80910;SDS011;70359;51.420;7.032;2024-03-02T07:21:15;1;;;0.9;;
80910;SDS011;70359;51.420;7.032;2024-03-02T07:23:40;1;;;0.9;;
80910;SDS011;70359;51.420;7.032;2024-03-02T07:26:05;1.3;;;1.2;;
80910;SDS011;70359;51.420;7.032;2024-03-02T07:28:31;1.3;;;1.2;;
80910;SDS011;70359;51.420;7.032;2024-03-02T07:31:01;1;;;0.9;;
80910;SDS011;70359;51.420;7.032;2024-03-02T07:33:20;1;;;0.9;;
80910;SDS011;70359;51.420;7.032;2024-03-02T07:35:45;1.7;;;1.3;;
80910;SDS011;70359;51.420;7.032;2024-03-02T07:38:14;1.7;;;1.3;;
80910;SDS011;70359;51.420;7.032;2024-03-02T07:40:35;2.1;;;1.5;;
80910;SDS011;70359;51.420;7.032;2024-03-02T07:43:00;2.1;;;1.5;;
80910;SDS011;70359;51.420;7.032;2024-03-02T07:45:25;1.3;;;1.2;;
80910;SDS011;70359;51.420;7.032;2024-03-02T07:47:54;1.3;;;1.2;;
80910;SDS011;70359;51.420;7.032;2024-03-02T07:50:15;1.4;;;1.2;;
80910;SDS011;70359;51.420;7.032;2024-03-02T07:52:40;1.4;;;1.2;;
80910;SDS011;70359;51.420;7.032;2024-03-02T07:55:05;1.2;;;1;;
80910;SDS011;70359;51.420;7.032;2024-03-02T07:57:34;1.2;;;1;;
80910;SDS011;70359;51.420;7.032;2024-03-02T07:59:55;1.3;;;1.2;;
80910;SDS011;70359;51.420;7.032;2024-03-02T08:02:24;1.3;;;1.2;;
80910;SDS011;70359;51.420;7.032;2024-03-02T08:04:45;2.5;;;1.4;;
80910;SDS011;70359;51.420;7.032;2024-03-02T08:07:14;2.5;;;1.4;;
80910;SDS011;70359;51.420;7.032;2024-03-02T08:09:35;2.5;;;1.4;;
80910;SDS011;70359;51.420;7.032;2024-03-02T08:12:00;1.1;;;1;;
80910;SDS011;70359;51.420;7.032;2024-03-02T08:14:25;1.1;;;1;;
80910;SDS011;70359;51.420;7.032;2024-03-02T08:16:50;1.2;;;1.1;;
80910;SDS011;70359;51.420;7.032;2024-03-02T08:19:19;1.2;;;1.1;;
80910;SDS011;70359;51.420;7.032;2024-03-02T08:21:40;1.6;;;1.3;;
80910;SDS011;70359;51.420;7.032;2024-03-02T08:24:06;1.6;;;1.3;;
80910;SDS011;70359;51.420;7.032;2024-03-02T08:26:30;2.3;;;1.3;;
80910;SDS011;70359;51.420;7.032;2024-03-02T08:28:55;2.3;;;1.3;;
80910;SDS011;70359;51.420;7.032;2024-03-02T08:31:20;1.3;;;0.9;;
80910;SDS011;70359;51.420;7.032;2024-03-02T08:33:45;1.3;;;0.9;;
80910;SDS011;70359;51.420;7.032;2024-03-02T08:36:14;1.6;;;1.2;;
80910;SDS011;70359;51.420;7.032;2024-03-02T08:38:35;1.6;;;1.2;;
80910;SDS011;70359;51.420;7.032;2024-03-02T08:41:00;1;;;0.8;;
80910;SDS011;70359;51.420;7.032;2024-03-02T08:43:25;1;;;0.8;;
80910;SDS011;70359;51.420;7.032;2024-03-02T08:45:50;1.3;;;1;;
80910;SDS011;70359;51.420;7.032;2024-03-02T08:48:20;1.3;;;1;;
80910;SDS011;70359;51.420;7.032;2024-03-02T08:50:40;1.1;;;0.9;;
80910;SDS011;70359;51.420;7.032;2024-03-02T08:53:05;1.1;;;0.9;;
80910;SDS011;70359;51.420;7.032;2024-03-02T08:55:30;1.1;;;1;;
80910;SDS011;70359;51.420;7.032;2024-03-02T08:57:55;1.1;;;1;;
80910;SDS011;70359;51.420;7.032;2024-03-02T09:00:21;0.8;;;0.8;;
80910;SDS011;70359;51.420;7.032;2024-03-02T09:02:45;0.8;;;0.8;;
80910;SDS011;70359;51.420;7.032;2024-03-02T09:05:10;1.1;;;0.9;;
80910;SDS011;70359;51.420;7.032;2024-03-02T09:07:35;1.1;;;0.9;;
80910;SDS011;70359;51.420;7.032;2024-03-02T09:10:00;1.4;;;1.1;;
80910;SDS011;70359;51.420;7.032;2024-03-02T09:12:25;1.4;;;1.1;;
80910;SDS011;70359;51.420;7.032;2024-03-02T09:14:50;1.7;;;1.2;;
80910;SDS011;70359;51.420;7.032;2024-03-02T09:17:19;1.7;;;1.2;;
80910;SDS011;70359;51.420;7.032;2024-03-02T09:19:40;1.7;;;1.2;;
80910;SDS011;70359;51.420;7.032;2024-03-02T09:22:05;1.1;;;1;;
80910;SDS011;70359;51.420;7.032;2024-03-02T09:24:34;1.1;;;1;;
80910;SDS011;70359;51.420;7.032;2024-03-02T09:26:55;1.1;;;0.8;;
80910;SDS011;70359;51.420;7.032;2024-03-02T09:29:24;1.1;;;0.8;;
80910;SDS011;70359;51.420;7.032;2024-03-02T09:31:45;1;;;0.8;;
80910;SDS011;70359;51.420;7.032;2024-03-02T09:34:10;1;;;0.8;;
80910;SDS011;70359;51.420;7.032;2024-03-02T09:36:35;1;;;0.9;;
80910;SDS011;70359;51.420;7.032;2024-03-02T09:39:00;1;;;0.9;;
80910;SDS011;70359;51.420;7.032;2024-03-02T09:41:25;1.1;;;1;;
80910;SDS011;70359;51.420;7.032;2024-03-02T09:43:50;1.1;;;1;;
80910;SDS011;70359;51.420;7.032;2024-03-02T09:46:15;0.7;;;0.7;;
80910;SDS011;70359;51.420;7.032;2024-03-02T09:48:40;0.7;;;0.7;;
80910;SDS011;70359;51.420;7.032;2024-03-02T09:51:05;1;;;0.9;;
80910;SDS011;70359;51.420;7.032;2024-03-02T09:53:32;1;;;0.9;;
80910;SDS011;70359;51.420;7.032;2024-03-02T09:55:55;0.7;;;0.7;;
80910;SDS011;70359;51.420;7.032;2024-03-02T09:58:24;0.7;;;0.7;;
80910;SDS011;70359;51.420;7.032;2024-03-02T10:00:45;0.8;;;0.8;;
80910;SDS011;70359;51.420;7.032;2024-03-02T10:03:13;0.8;;;0.8;;
80910;SDS011;70359;51.420;7.032;2024-03-02T10:05:35;0.8;;;0.8;;
80910;SDS011;70359;51.420;7.032;2024-03-02T10:08:04;0.8;;;0.8;;
80910;SDS011;70359;51.420;7.032;2024-03-02T10:10:34;1.2;;;1;;
80910;SDS011;70359;51.420;7.032;2024-03-02T10:13:07;1.2;;;1;;
80910;SDS011;70359;51.420;7.032;2024-03-02T10:15:23;0.9;;;0.7;;
80910;SDS011;70359;51.420;7.032;2024-03-02T10:17:44;0.9;;;0.7;;
80910;SDS011;70359;51.420;7.032;2024-03-02T10:20:26;0.9;;;0.8;;
80910;SDS011;70359;51.420;7.032;2024-03-02T10:22:34;0.9;;;0.8;;
80910;SDS011;70359;51.420;7.032;2024-03-02T10:24:55;0.7;;;0.7;;
80910;SDS011;70359;51.420;7.032;2024-03-02T10:27:23;0.7;;;0.7;;
80910;SDS011;70359;51.420;7.032;2024-03-02T10:29:46;0.7;;;0.7;;
80910;SDS011;70359;51.420;7.032;2024-03-02T10:32:12;0.9;;;0.7;;
80910;SDS011;70359;51.420;7.032;2024-03-02T10:34:35;0.9;;;0.7;;
80910;SDS011;70359;51.420;7.032;2024-03-02T10:37:00;0.6;;;0.6;;
80910;SDS011;70359;51.420;7.032;2024-03-02T10:39:25;0.6;;;0.6;;
80910;SDS011;70359;51.420;7.032;2024-03-02T10:41:52;1.2;;;0.9;;
80910;SDS011;70359;51.420;7.032;2024-03-02T10:44:15;1.2;;;0.9;;
80910;SDS011;70359;51.420;7.032;2024-03-02T10:46:45;0.7;;;0.7;;
80910;SDS011;70359;51.420;7.032;2024-03-02T10:49:06;0.7;;;0.7;;
80910;SDS011;70359;51.420;7.032;2024-03-02T10:51:32;0.7;;;0.6;;
80910;SDS011;70359;51.420;7.032;2024-03-02T10:53:55;0.7;;;0.6;;
80910;SDS011;70359;51.420;7.032;2024-03-02T10:56:22;1.6;;;1.2;;
80910;SDS011;70359;51.420;7.032;2024-03-02T10:58:46;1.6;;;1.2;;
80910;SDS011;70359;51.420;7.032;2024-03-02T11:01:15;0.7;;;0.7;;
80910;SDS011;70359;51.420;7.032;2024-03-02T11:03:36;0.7;;;0.7;;
80910;SDS011;70359;51.420;7.032;2024-03-02T11:06:02;1;;;0.9;;
80910;SDS011;70359;51.420;7.032;2024-03-02T11:08:26;1;;;0.9;;
80910;SDS011;70359;51.420;7.032;2024-03-02T11:10:57;0.8;;;0.6;;
80910;SDS011;70359;51.420;7.032;2024-03-02T11:13:15;0.8;;;0.6;;
80910;SDS011;70359;51.420;7.032;2024-03-02T11:15:43;0.9;;;0.6;;
80910;SDS011;70359;51.420;7.032;2024-03-02T11:18:06;0.9;;;0.6;;
80910;SDS011;70359;51.420;7.032;2024-03-02T11:20:35;0.9;;;0.9;;
80910;SDS011;70359;51.420;7.032;2024-03-02T11:22:56;0.9;;;0.9;;
80910;SDS011;70359;51.420;7.032;2024-03-02T11:25:28;1.1;;;0.9;;
80910;SDS011;70359;51.420;7.032;2024-03-02T11:28:04;1.1;;;0.9;;
80910;SDS011;70359;51.420;7.032;2024-03-02T11:32:35;2.6;;;1.3;;
80910;SDS011;70359;51.420;7.032;2024-03-02T11:35:02;0.8;;;0.7;;
80910;SDS011;70359;51.420;7.032;2024-03-02T11:37:25;0.8;;;0.7;;
80910;SDS011;70359;51.420;7.032;2024-03-02T11:39:51;0.8;;;0.7;;
80910;SDS011;70359;51.420;7.032;2024-03-02T11:42:16;0.8;;;0.8;;
80910;SDS011;70359;51.420;7.032;2024-03-02T11:44:41;0.8;;;0.8;;
80910;SDS011;70359;51.420;7.032;2024-03-02T11:47:06;0.5;;;0.4;;
80910;SDS011;70359;51.420;7.032;2024-03-02T11:49:40;0.5;;;0.4;;
80910;SDS011;70359;51.420;7.032;2024-03-02T11:52:01;1.9;;;0.7;;
80910;SDS011;70359;51.420;7.032;2024-03-02T11:54:21;1.9;;;0.7;;
80910;SDS011;70359;51.420;7.032;2024-03-02T11:56:46;0.8;;;0.6;;
80910;SDS011;70359;51.420;7.032;2024-03-02T11:59:11;0.8;;;0.6;;
80910;SDS011;70359;51.420;7.032;2024-03-02T12:01:38;0.8;;;0.7;;
80910;SDS011;70359;51.420;7.032;2024-03-02T12:04:05;0.8;;;0.7;;
80910;SDS011;70359;51.420;7.032;2024-03-02T12:06:26;0.7;;;0.6;;
80910;SDS011;70359;51.420;7.032;2024-03-02T12:08:52;0.7;;;0.6;;
80910;SDS011;70359;51.420;7.032;2024-03-02T12:11:15;0.9;;;0.8;;
80910;SDS011;70359;51.420;7.032;2024-03-02T12:13:40;0.9;;;0.8;;
80910;SDS011;70359;51.420;7.032;2024-03-02T12:16:06;0.9;;;0.7;;
80910;SDS011;70359;51.420;7.032;2024-03-02T12:18:31;0.9;;;0.7;;
80910;SDS011;70359;51.420;7.032;2024-03-02T12:20:56;0.8;;;0.5;;
80910;SDS011;70359;51.420;7.032;2024-03-02T12:23:25;0.8;;;0.5;;
80910;SDS011;70359;51.420;7.032;2024-03-02T12:25:46;0.7;;;0.7;;
80910;SDS011;70359;51.420;7.032;2024-03-02T12:28:11;0.7;;;0.7;;
80910;SDS011;70359;51.420;7.032;2024-03-02T12:30:36;1.1;;;0.8;;
80910;SDS011;70359;51.420;7.032;2024-03-02T12:33:01;1.1;;;0.8;;
80910;SDS011;70359;51.420;7.032;2024-03-02T12:35:26;0.9;;;0.7;;
80910;SDS011;70359;51.420;7.032;2024-03-02T12:37:53;0.9;;;0.7;;
80910;SDS011;70359;51.420;7.032;2024-03-02T12:40:17;0.8;;;0.8;;
80910;SDS011;70359;51.420;7.032;2024-03-02T12:42:41;0.8;;;0.8;;
80910;SDS011;70359;51.420;7.032;2024-03-02T12:45:06;1.3;;;0.7;;
80910;SDS011;70359;51.420;7.032;2024-03-02T12:47:35;1.3;;;0.7;;
80910;SDS011;70359;51.420;7.032;2024-03-02T12:49:56;1.3;;;0.7;;
80910;SDS011;70359;51.420;7.032;2024-03-02T12:52:25;0.7;;;0.7;;
80910;SDS011;70359;51.420;7.032;2024-03-02T12:54:46;0.7;;;0.7;;
80910;SDS011;70359;51.420;7.032;2024-03-02T12:57:16;1.1;;;0.6;;
80910;SDS011;70359;51.420;7.032;2024-03-02T12:59:36;1.1;;;0.6;;
80910;SDS011;70359;51.420;7.032;2024-03-02T13:02:01;0.7;;;0.7;;
80910;SDS011;70359;51.420;7.032;2024-03-02T13:04:27;0.7;;;0.7;;
80910;SDS011;70359;51.420;7.032;2024-03-02T13:06:51;0.5;;;0.4;;
80910;SDS011;70359;51.420;7.032;2024-03-02T13:09:16;0.5;;;0.4;;
80910;SDS011;70359;51.420;7.032;2024-03-02T13:11:41;1.1;;;0.8;;
80910;SDS011;70359;51.420;7.032;2024-03-02T13:14:06;1.1;;;0.8;;
80910;SDS011;70359;51.420;7.032;2024-03-02T13:16:35;0.4;;;0.4;;
80910;SDS011;70359;51.420;7.032;2024-03-02T13:18:56;0.4;;;0.4;;
80910;SDS011;70359;51.420;7.032;2024-03-02T13:21:21;0.5;;;0.5;;
80910;SDS011;70359;51.420;7.032;2024-03-02T13:23:50;0.5;;;0.5;;
80910;SDS011;70359;51.420;7.032;2024-03-02T13:26:15;1.2;;;0.8;;
80910;SDS011;70359;51.420;7.032;2024-03-02T13:28:40;1.2;;;0.8;;
80910;SDS011;70359;51.420;7.032;2024-03-02T13:31:01;0.5;;;0.4;;
80910;SDS011;70359;51.420;7.032;2024-03-02T13:33:30;0.5;;;0.4;;
80910;SDS011;70359;51.420;7.032;2024-03-02T13:35:51;0.6;;;0.6;;
80910;SDS011;70359;51.420;7.032;2024-03-02T13:38:16;0.6;;;0.6;;
80910;SDS011;70359;51.420;7.032;2024-03-02T13:40:41;2;;;0.6;;
80910;SDS011;70359;51.420;7.032;2024-03-02T13:43:06;2;;;0.6;;
80910;SDS011;70359;51.420;7.032;2024-03-02T13:45:31;0.8;;;0.6;;
80910;SDS011;70359;51.420;7.032;2024-03-02T13:47:56;0.8;;;0.6;;
80910;SDS011;70359;51.420;7.032;2024-03-02T13:50:21;0.5;;;0.4;;
80910;SDS011;70359;51.420;7.032;2024-03-02T13:52:50;0.5;;;0.4;;
80910;SDS011;70359;51.420;7.032;2024-03-02T13:55:18;0.6;;;0.5;;
80910;SDS011;70359;51.420;7.032;2024-03-02T13:57:40;0.6;;;0.5;;
80910;SDS011;70359;51.420;7.032;2024-03-02T14:00:01;0.6;;;0.5;;
80910;SDS011;70359;51.420;7.032;2024-03-02T14:02:30;0.5;;;0.5;;
80910;SDS011;70359;51.420;7.032;2024-03-02T14:04:51;0.5;;;0.5;;
80910;SDS011;70359;51.420;7.032;2024-03-02T14:07:16;0.4;;;0.3;;
80910;SDS011;70359;51.420;7.032;2024-03-02T14:09:41;0.4;;;0.3;;
80910;SDS011;70359;51.420;7.032;2024-03-02T14:12:06;0.6;;;0.6;;
80910;SDS011;70359;51.420;7.032;2024-03-02T14:14:31;0.6;;;0.6;;
80910;SDS011;70359;51.420;7.032;2024-03-02T14:16:56;0.4;;;0.4;;
80910;SDS011;70359;51.420;7.032;2024-03-02T14:19:21;0.4;;;0.4;;
80910;SDS011;70359;51.420;7.032;2024-03-02T14:21:46;0.6;;;0.5;;
80910;SDS011;70359;51.420;7.032;2024-03-02T14:24:15;0.6;;;0.5;;
80910;SDS011;70359;51.420;7.032;2024-03-02T14:26:36;0.5;;;0.3;;
80910;SDS011;70359;51.420;7.032;2024-03-02T14:29:01;0.5;;;0.3;;
80910;SDS011;70359;51.420;7.032;2024-03-02T14:31:26;1.2;;;0.7;;
80910;SDS011;70359;51.420;7.032;2024-03-02T14:33:55;1.2;;;0.7;;
80910;SDS011;70359;51.420;7.032;2024-03-02T14:36:20;0.9;;;0.6;;
80910;SDS011;70359;51.420;7.032;2024-03-02T14:38:41;0.9;;;0.6;;
80910;SDS011;70359;51.420;7.032;2024-03-02T14:41:06;0.5;;;0.5;;
80910;SDS011;70359;51.420;7.032;2024-03-02T14:43:31;0.5;;;0.5;;
80910;SDS011;70359;51.420;7.032;2024-03-02T14:45:56;0.3;;;0.3;;
80910;SDS011;70359;51.420;7.032;2024-03-02T14:48:21;0.3;;;0.3;;
80910;SDS011;70359;51.420;7.032;2024-03-02T14:50:50;0.7;;;0.4;;
80910;SDS011;70359;51.420;7.032;2024-03-02T14:53:11;0.7;;;0.4;;
80910;SDS011;70359;51.420;7.032;2024-03-02T14:55:40;0.6;;;0.4;;
80910;SDS011;70359;51.420;7.032;2024-03-02T14:58:01;0.6;;;0.4;;
80910;SDS011;70359;51.420;7.032;2024-03-02T15:00:26;0.7;;;0.6;;
80910;SDS011;70359;51.420;7.032;2024-03-02T15:02:51;0.7;;;0.6;;
80910;SDS011;70359;51.420;7.032;2024-03-02T15:05:16;1.6;;;0.4;;
80910;SDS011;70359;51.420;7.032;2024-03-02T15:07:45;1.6;;;0.4;;
80910;SDS011;70359;51.420;7.032;2024-03-02T15:10:09;0.5;;;0.5;;